createdAt,value
2018-04-23T00:01:26.794Z,99695.72
2018-04-23T00:03:55.304Z,99694.47
2018-04-23T00:06:23.765Z,99691.45
2018-04-23T00:08:52.230Z,99693.89
2018-04-23T00:11:20.744Z,99693.08
2018-04-23T00:13:49.240Z,99698.27
2018-04-23T00:16:17.706Z,99687.06
2018-04-23T00:18:46.221Z,99697.43
2018-04-23T00:21:14.669Z,99699.34
2018-04-23T00:23:43.166Z,99692.78
2018-04-23T00:26:11.611Z,99686.36
2018-04-23T00:28:40.111Z,99693.99
2018-04-23T00:31:08.562Z,99702.08
2018-04-23T00:33:37.046Z,99700.16
2018-04-23T00:36:05.526Z,99702.59
2018-04-23T00:38:34.240Z,99700.92
2018-04-23T00:41:02.739Z,99706.76
2018-04-23T00:43:31.248Z,99705.91
2018-04-23T00:45:59.739Z,99704.09
2018-04-23T00:48:28.224Z,99704.78
2018-04-23T00:50:56.706Z,99710.20
2018-04-23T00:53:36.876Z,99709.38
2018-04-23T00:56:05.388Z,99697.31
2018-04-23T00:58:33.864Z,99699.12
2018-04-23T01:01:02.345Z,99701.70
2018-04-23T01:03:30.857Z,99698.81
2018-04-23T01:05:59.316Z,99697.03
2018-04-23T01:08:27.817Z,99700.01
2018-04-23T01:10:56.279Z,99680.30
2018-04-23T01:13:24.780Z,99694.81
2018-04-23T01:15:53.245Z,99693.14
2018-04-23T01:18:21.751Z,99694.00
2018-04-23T01:20:50.204Z,99699.81
2018-04-23T01:23:18.685Z,99691.07
2018-04-23T01:25:47.184Z,99690.00
2018-04-23T01:28:15.642Z,99691.77
2018-04-23T01:30:44.106Z,99687.38
2018-04-23T01:33:12.618Z,99689.70
2018-04-23T01:35:41.076Z,99686.16
2018-04-23T01:38:09.574Z,99685.05
2018-04-23T01:40:38.069Z,99682.72
2018-04-23T01:43:06.590Z,99685.59
2018-04-23T01:45:35.088Z,99675.98
2018-04-23T01:48:03.596Z,99680.78
2018-04-23T01:50:32.108Z,99681.59
2018-04-23T01:53:00.630Z,99682.78
2018-04-23T01:55:29.172Z,99659.88
2018-04-23T01:57:57.644Z,99680.55
2018-04-23T02:00:26.116Z,99679.83
2018-04-23T02:02:54.604Z,99672.69
2018-04-23T02:05:23.138Z,99655.95
2018-04-23T02:07:51.643Z,99683.04
2018-04-23T02:10:20.105Z,99684.64
2018-04-23T02:12:48.596Z,99673.15
2018-04-23T02:15:17.090Z,99679.80
2018-04-23T02:17:45.565Z,99685.94
2018-04-23T02:20:14.076Z,99690.59
2018-04-23T02:22:42.589Z,99684.42
2018-04-23T02:25:11.089Z,99682.44
2018-04-23T02:27:39.552Z,99680.52
2018-04-23T02:30:08.003Z,99682.63
2018-04-23T02:32:36.467Z,99678.48
2018-04-23T02:35:05.021Z,99681.48
2018-04-23T02:37:33.512Z,99673.45
2018-04-23T02:40:02.005Z,99675.41
2018-04-23T02:42:30.509Z,99675.22
2018-04-23T02:44:58.975Z,99649.17
2018-04-23T02:47:27.453Z,99676.02
2018-04-23T02:49:55.946Z,99682.02
2018-04-23T02:52:24.440Z,99684.02
2018-04-23T02:54:52.912Z,99681.78
2018-04-23T02:57:21.452Z,99669.09
2018-04-23T02:59:49.918Z,99681.40
2018-04-23T03:02:18.445Z,99678.91
2018-04-23T03:04:46.933Z,99685.19
2018-04-23T03:07:15.397Z,99685.90
2018-04-23T03:09:43.908Z,99684.41
2018-04-23T03:12:12.364Z,99683.31
2018-04-23T03:14:40.859Z,99693.41
2018-04-23T03:17:09.321Z,99692.42
2018-04-23T03:19:37.824Z,99687.47
2018-04-23T03:22:06.280Z,99689.95
2018-04-23T03:24:34.780Z,99685.95
2018-04-23T03:27:03.279Z,99690.88
2018-04-23T03:29:31.749Z,99688.39
2018-04-23T03:32:00.261Z,99690.14
2018-04-23T03:34:28.782Z,99687.19
2018-04-23T03:36:57.277Z,99703.61
2018-04-23T03:39:25.747Z,99705.68
2018-04-23T03:41:54.256Z,99702.57
2018-04-23T03:44:22.724Z,99701.77
2018-04-23T03:46:51.250Z,99705.58
2018-04-23T03:49:19.708Z,99694.97
2018-04-23T03:51:48.211Z,99704.04
2018-04-23T03:54:16.714Z,99705.17
2018-04-23T03:56:45.212Z,99705.76
2018-04-23T03:59:13.694Z,99696.73
2018-04-23T04:01:42.243Z,99707.73
2018-04-23T04:04:10.704Z,99712.44
2018-04-23T04:06:39.192Z,99704.30
2018-04-23T04:09:07.708Z,99704.52
2018-04-23T04:11:36.172Z,99711.28
2018-04-23T04:14:16.472Z,99711.52
2018-04-23T04:16:59.717Z,99708.88
2018-04-23T04:19:28.255Z,99703.26
2018-04-23T04:21:56.748Z,99697.59
2018-04-23T04:24:25.240Z,99704.13
2018-04-23T04:26:53.716Z,99704.25
2018-04-23T04:29:23.062Z,99700.77
2018-04-23T04:31:51.561Z,99688.10
2018-04-23T04:34:20.033Z,99701.78
2018-04-23T04:36:48.553Z,99690.86
2018-04-23T04:39:17.018Z,99694.41
2018-04-23T04:41:45.476Z,99680.33
2018-04-23T04:44:14.000Z,99687.16
2018-04-23T04:46:42.456Z,99693.72
2018-04-23T04:49:10.916Z,99693.91
2018-04-23T04:51:40.313Z,99695.51
2018-04-23T04:54:08.780Z,99687.91
2018-04-23T04:56:37.273Z,99688.31
2018-04-23T04:59:05.751Z,99676.19
2018-04-23T05:01:34.289Z,99693.08
2018-04-23T05:04:02.765Z,99683.41
2018-04-23T05:06:31.264Z,99678.14
2018-04-23T05:08:59.788Z,99684.34
2018-04-23T05:11:28.269Z,99678.11
2018-04-23T05:13:56.783Z,99682.98
2018-04-23T05:16:25.257Z,99677.70
2018-04-23T05:18:53.727Z,99679.37
2018-04-23T05:21:22.252Z,99670.86
2018-04-23T05:23:50.829Z,99686.62
2018-04-23T05:26:19.273Z,99682.75
2018-04-23T05:28:47.789Z,99695.97
2018-04-23T05:31:16.337Z,99690.51
2018-04-23T05:33:45.303Z,99687.98
2018-04-23T05:36:14.385Z,99686.06
2018-04-23T05:38:42.878Z,99687.02
2018-04-23T05:41:11.406Z,99686.36
2018-04-23T05:43:39.903Z,99697.70
2018-04-23T05:46:08.408Z,99697.20
2018-04-23T05:48:36.845Z,99701.65
2018-04-23T05:51:05.347Z,99698.59
2018-04-23T05:53:33.881Z,99685.03
2018-04-23T05:56:02.430Z,99705.79
2018-04-23T05:58:30.918Z,99705.13
2018-04-23T06:00:59.428Z,99697.94
2018-04-23T06:03:27.892Z,99706.67
2018-04-23T06:05:56.360Z,99706.65
2018-04-23T06:08:24.846Z,99690.42
2018-04-23T06:10:53.336Z,99688.55
2018-04-23T06:13:21.888Z,99697.97
2018-04-23T06:15:50.356Z,99704.41
2018-04-23T06:18:18.879Z,99703.44
2018-04-23T06:20:47.399Z,99700.49
2018-04-23T06:23:15.930Z,99675.02
2018-04-23T06:25:44.485Z,99690.70
2018-04-23T06:28:12.956Z,99684.16
2018-04-23T06:30:41.510Z,99693.41
2018-04-23T06:33:09.982Z,99700.52
2018-04-23T06:35:38.493Z,99699.59
2018-04-23T06:38:06.960Z,99691.84
2018-04-23T06:40:35.473Z,99697.52
2018-04-23T06:43:03.973Z,99689.55
2018-04-23T06:45:33.638Z,99693.97
2018-04-23T06:48:02.246Z,99692.44
2018-04-23T06:50:30.739Z,99683.89
2018-04-23T06:52:59.303Z,99689.75
2018-04-23T06:55:27.783Z,99693.50
2018-04-23T06:57:56.295Z,99694.13
2018-04-23T07:00:25.384Z,99695.16
2018-04-23T07:02:53.937Z,99683.44
2018-04-23T07:05:22.437Z,99689.44
2018-04-23T07:07:50.952Z,99678.75
2018-04-23T07:10:19.482Z,99682.77
2018-04-23T07:12:47.958Z,99685.38
2018-04-23T07:15:16.467Z,99689.61
2018-04-23T07:17:44.975Z,99687.82
2018-04-23T07:20:13.454Z,99682.02
2018-04-23T07:22:41.914Z,99681.33
2018-04-23T07:25:10.417Z,99686.82
2018-04-23T07:27:38.982Z,99688.18
2018-04-23T07:30:07.481Z,99678.28
2018-04-23T07:32:35.985Z,99685.37
2018-04-23T07:35:04.487Z,99683.43
2018-04-23T07:37:32.995Z,99678.36
2018-04-23T07:40:01.764Z,99676.75
2018-04-23T07:42:31.226Z,99678.59
2018-04-23T07:44:59.687Z,99681.02
2018-04-23T07:47:28.183Z,99670.61
2018-04-23T07:49:56.649Z,99676.98
2018-04-23T07:52:25.141Z,99667.98
2018-04-23T07:54:53.799Z,99672.94
2018-04-23T07:57:22.228Z,99674.38
2018-04-23T07:59:50.793Z,99661.80
2018-04-23T08:02:19.290Z,99673.86
2018-04-23T08:04:47.736Z,99658.90
2018-04-23T08:07:16.224Z,99667.89
2018-04-23T08:09:44.786Z,99657.31
2018-04-23T08:12:13.310Z,99662.15
2018-04-23T08:14:41.809Z,99668.51
2018-04-23T08:17:10.309Z,99667.64
2018-04-23T08:22:00.981Z,99663.88
2018-04-23T08:24:29.472Z,99661.49
2018-04-23T08:26:57.957Z,99660.67
2018-04-23T08:29:26.565Z,99654.36
2018-04-23T08:31:55.236Z,99661.25
2018-04-23T08:34:23.704Z,99666.33
2018-04-23T08:36:52.228Z,99656.24
2018-04-23T08:39:20.681Z,99648.73
2018-04-23T08:41:49.194Z,99654.97
2018-04-23T08:44:17.707Z,99647.89
2018-04-23T08:46:46.229Z,99641.87
2018-04-23T08:49:14.742Z,99638.39
2018-04-23T08:51:43.214Z,99643.87
2018-04-23T08:54:11.687Z,99634.85
2018-04-23T08:56:40.184Z,99646.21
2018-04-23T08:59:08.680Z,99637.11
2018-04-23T09:01:37.148Z,99638.23
2018-04-23T09:04:05.653Z,99639.89
2018-04-23T09:06:34.096Z,99618.73
2018-04-23T09:09:02.569Z,99626.91
2018-04-23T09:11:31.116Z,99638.42
2018-04-23T09:13:59.585Z,99626.38
2018-04-23T09:16:28.040Z,99631.73
2018-04-23T09:18:56.535Z,99621.53
2018-04-23T09:21:25.047Z,99625.65
2018-04-23T09:23:53.519Z,99627.23
2018-04-23T09:26:21.991Z,99620.89
2018-04-23T09:28:50.499Z,99622.61
2018-04-23T09:31:18.980Z,99622.02
2018-04-23T09:33:47.464Z,99598.73
2018-04-23T09:36:15.956Z,99627.14
2018-04-23T09:38:44.630Z,99619.28
2018-04-23T09:41:13.212Z,99614.67
2018-04-23T09:43:41.700Z,99615.64
2018-04-23T09:46:10.180Z,99608.41
2018-04-23T09:48:38.685Z,99605.81
2018-04-23T09:51:07.172Z,99600.88
2018-04-23T09:53:35.678Z,99599.40
2018-04-23T09:56:04.195Z,99598.66
2018-04-23T09:58:32.679Z,99597.11
2018-04-23T10:01:01.189Z,99597.25
2018-04-23T10:03:35.085Z,99594.56
2018-04-23T10:06:03.641Z,99590.49
2018-04-23T10:08:32.106Z,99586.65
2018-04-23T10:11:00.615Z,99588.80
2018-04-23T10:13:29.077Z,99596.33
2018-04-23T10:15:57.602Z,99580.31
2018-04-23T10:18:26.074Z,99584.45
2018-04-23T10:20:54.640Z,99578.09
2018-04-23T10:23:23.065Z,99577.58
2018-04-23T10:25:51.597Z,99570.19
2018-04-23T10:28:20.081Z,99577.16
2018-04-23T10:30:48.565Z,99571.14
2018-04-23T10:33:17.052Z,99573.67
2018-04-23T10:35:45.744Z,99556.36
2018-04-23T10:38:14.224Z,99569.23
2018-04-23T10:40:42.970Z,99572.47
2018-04-23T10:43:11.433Z,99566.05
2018-04-23T10:45:42.585Z,99565.61
2018-04-23T10:48:12.038Z,99561.06
2018-04-23T10:50:40.675Z,99558.92
2018-04-23T10:53:09.109Z,99556.82
2018-04-23T10:55:37.593Z,99550.19
2018-04-23T10:58:07.111Z,99542.86
2018-04-23T11:00:35.973Z,99557.89
2018-04-23T11:03:04.456Z,99555.42
2018-04-23T11:05:32.956Z,99550.51
2018-04-23T11:08:01.463Z,99547.47
2018-04-23T11:10:30.220Z,99547.20
2018-04-23T11:12:58.736Z,99550.63
2018-04-23T11:15:27.216Z,99550.32
2018-04-23T11:17:57.348Z,99540.27
2018-04-23T11:20:29.460Z,99545.73
2018-04-23T11:22:58.387Z,99542.34
2018-04-23T11:25:26.853Z,99538.90
2018-04-23T11:27:55.382Z,99530.02
2018-04-23T11:30:23.878Z,99543.60
2018-04-23T11:32:52.369Z,99540.65
2018-04-23T11:35:20.882Z,99527.02
2018-04-23T11:37:49.345Z,99530.70
2018-04-23T11:40:17.811Z,99531.73
2018-04-23T11:42:46.309Z,99536.31
2018-04-23T11:45:14.797Z,99528.62
2018-04-23T11:47:43.344Z,99528.14
2018-04-23T11:50:12.481Z,99523.42
2018-04-23T11:52:41.068Z,99525.89
2018-04-23T11:55:09.555Z,99516.59
2018-04-23T11:57:38.044Z,99515.74
2018-04-23T12:00:06.512Z,99521.33
2018-04-23T12:02:35.025Z,99512.83
2018-04-23T12:05:03.536Z,99500.69
2018-04-23T12:07:32.085Z,99505.92
2018-04-23T12:10:00.549Z,99503.69
2018-04-23T12:12:29.016Z,99487.89
2018-04-23T12:14:57.505Z,99488.41
2018-04-23T12:17:25.993Z,99494.84
2018-04-23T12:19:54.446Z,99480.84
2018-04-23T12:22:22.969Z,99486.78
2018-04-23T12:24:51.489Z,99486.42
2018-04-23T12:27:19.971Z,99486.25
2018-04-23T12:29:48.484Z,99487.92
2018-04-23T12:32:17.009Z,99478.54
2018-04-23T12:34:45.483Z,99475.78
2018-04-23T12:37:14.013Z,99480.75
2018-04-23T12:39:42.469Z,99480.88
2018-04-23T12:42:10.961Z,99475.83
2018-04-23T12:44:39.409Z,99476.05
2018-04-23T12:47:07.914Z,99467.44
2018-04-23T12:49:36.375Z,99469.00
2018-04-23T12:52:04.878Z,99462.55
2018-04-23T12:54:33.367Z,99463.98
2018-04-23T12:57:01.874Z,99463.88
2018-04-23T12:59:30.399Z,99459.42
2018-04-23T13:01:58.868Z,99462.84
2018-04-23T13:04:27.359Z,99452.94
2018-04-23T13:06:55.888Z,99444.58
2018-04-23T13:09:24.416Z,99438.55
2018-04-23T13:11:53.042Z,99441.51
2018-04-23T13:14:21.601Z,99445.83
2018-04-23T13:16:50.094Z,99448.56
2018-04-23T13:19:18.592Z,99440.46
2018-04-23T13:21:47.044Z,99423.73
2018-04-23T13:24:15.525Z,99444.91
2018-04-23T13:26:44.018Z,99434.76
2018-04-23T13:29:12.597Z,99439.83
2018-04-23T13:31:41.117Z,99433.04
2018-04-23T13:34:09.633Z,99440.63
2018-04-23T13:36:38.084Z,99433.90
2018-04-23T13:39:06.669Z,99425.20
2018-04-23T13:41:35.188Z,99427.22
2018-04-23T13:44:03.734Z,99428.11
2018-04-23T13:46:32.248Z,99419.86
2018-04-23T13:49:00.762Z,99425.48
2018-04-23T13:51:29.268Z,99429.56
2018-04-23T13:53:57.756Z,99427.97
2018-04-23T13:56:26.286Z,99425.03
2018-04-23T13:58:54.761Z,99418.72
2018-04-23T14:01:23.193Z,99417.30
2018-04-23T14:03:51.673Z,99422.59
2018-04-23T14:06:20.196Z,99401.88
2018-04-23T14:08:48.708Z,99400.83
2018-04-23T14:11:17.203Z,99411.08
2018-04-23T14:13:45.800Z,99416.44
2018-04-23T14:16:14.351Z,99418.23
2018-04-23T14:18:42.807Z,99411.53
2018-04-23T14:21:11.327Z,99414.47
2018-04-23T14:23:39.840Z,99407.80
2018-04-23T14:26:09.124Z,99403.45
2018-04-23T14:28:37.777Z,99416.61
2018-04-23T14:31:06.304Z,99412.73
2018-04-23T14:33:35.022Z,99411.33
2018-04-23T14:36:03.479Z,99412.61
2018-04-23T14:38:31.983Z,99405.36
2018-04-23T14:41:00.438Z,99405.13
2018-04-23T14:43:29.001Z,99411.16
2018-04-23T14:45:57.488Z,99418.70
2018-04-23T14:48:25.968Z,99411.99
2018-04-23T14:50:54.650Z,99413.55
2018-04-23T14:53:23.169Z,99416.78
2018-04-23T14:55:51.656Z,99416.48
2018-04-23T14:58:20.104Z,99411.66
2018-04-23T15:00:48.610Z,99414.98
2018-04-23T15:03:17.108Z,99421.87
2018-04-23T15:05:45.605Z,99417.07
2018-04-23T15:08:14.088Z,99411.38
2018-04-23T15:10:42.583Z,99413.89
2018-04-23T15:13:11.084Z,99422.80
2018-04-23T15:15:39.572Z,99419.21
2018-04-23T15:18:08.061Z,99421.96
2018-04-23T15:20:36.553Z,99426.36
2018-04-23T15:23:05.028Z,99420.63
2018-04-23T15:25:33.491Z,99426.92
2018-04-23T15:28:01.997Z,99426.38
2018-04-23T15:30:30.452Z,99425.25
2018-04-23T15:32:58.896Z,99421.76
2018-04-23T15:35:27.380Z,99426.89
2018-04-23T15:37:55.845Z,99428.64
2018-04-23T15:40:24.340Z,99425.96
2018-04-23T15:42:52.826Z,99424.45
2018-04-23T15:45:21.280Z,99423.53
2018-04-23T15:47:49.758Z,99412.69
2018-04-23T15:50:18.209Z,99426.75
2018-04-23T15:52:46.684Z,99426.52
2018-04-23T15:55:15.131Z,99422.36
2018-04-23T15:57:43.605Z,99426.49
2018-04-23T16:00:12.076Z,99426.25
2018-04-23T16:02:40.560Z,99427.77
2018-04-23T16:05:09.004Z,99424.80
2018-04-23T16:07:37.487Z,99424.30
2018-04-23T16:10:05.980Z,99421.39
2018-04-23T16:12:34.468Z,99425.60
2018-04-23T16:15:02.916Z,99423.70
2018-04-23T16:17:31.361Z,99420.38
2018-04-23T16:19:59.856Z,99407.91
2018-04-23T16:22:28.359Z,99419.05
2018-04-23T16:24:56.841Z,99428.86
2018-04-23T16:27:25.331Z,99423.83
2018-04-23T16:29:53.781Z,99430.70
2018-04-23T16:32:22.237Z,99428.31
2018-04-23T16:34:50.746Z,99424.97
2018-04-23T16:37:19.236Z,99429.20
2018-04-23T16:39:47.701Z,99428.12
2018-04-23T16:42:16.215Z,99423.56
2018-04-23T16:44:44.709Z,99430.90
2018-04-23T16:47:13.200Z,99436.80
2018-04-23T16:49:41.744Z,99434.52
2018-04-23T16:52:10.200Z,99434.46
2018-04-23T16:54:38.707Z,99440.62
2018-04-23T16:57:07.199Z,99442.72
2018-04-23T16:59:35.742Z,99446.64
2018-04-23T17:02:04.256Z,99446.05
2018-04-23T17:04:32.716Z,99453.77
2018-04-23T17:07:01.228Z,99451.51
2018-04-23T17:09:29.712Z,99451.13
2018-04-23T17:11:58.172Z,99452.78
2018-04-23T17:14:26.644Z,99458.34
2018-04-23T17:16:55.144Z,99465.68
2018-04-23T17:19:23.586Z,99467.21
2018-04-23T17:21:52.079Z,99467.91
2018-04-23T17:24:20.551Z,99470.52
2018-04-23T17:26:49.028Z,99475.12
2018-04-23T17:29:17.516Z,99473.89
2018-04-23T17:31:45.973Z,99478.30
2018-04-23T17:34:14.411Z,99473.77
2018-04-23T17:36:42.888Z,99483.92
2018-04-23T17:39:11.377Z,99491.19
2018-04-23T17:41:39.965Z,99475.22
2018-04-23T17:44:08.380Z,99499.44
2018-04-23T17:46:36.876Z,99501.52
2018-04-23T17:49:05.338Z,99501.92
2018-04-23T17:51:33.816Z,99513.87
2018-04-23T17:54:02.308Z,99508.14
2018-04-23T17:56:30.783Z,99514.44
2018-04-23T17:58:59.224Z,99508.80
2018-04-23T18:01:27.703Z,99518.88
2018-04-23T18:03:56.184Z,99522.07
2018-04-23T18:06:24.624Z,99525.79
2018-04-23T18:08:53.117Z,99522.83
2018-04-23T18:11:21.564Z,99527.81
2018-04-23T18:13:50.048Z,99531.23
2018-04-23T18:16:18.605Z,99538.00
2018-04-23T18:18:47.053Z,99538.48
2018-04-23T18:21:15.503Z,99553.49
2018-04-23T18:23:43.997Z,99551.25
2018-04-23T18:26:12.472Z,99553.38
2018-04-23T18:28:40.889Z,99558.81
2018-04-23T18:31:09.372Z,99561.68
2018-04-23T18:33:37.855Z,99569.48
2018-04-23T18:36:06.300Z,99566.25
2018-04-23T18:38:34.741Z,99571.52
2018-04-23T18:41:03.216Z,99577.15
2018-04-23T18:43:31.656Z,99579.83
2018-04-23T18:46:00.096Z,99583.02
2018-04-23T18:48:28.584Z,99573.69
2018-04-23T18:50:57.051Z,99574.41
2018-04-23T18:53:25.528Z,99577.16
2018-04-23T18:55:54.017Z,99574.88
2018-04-23T18:58:22.496Z,99587.23
2018-04-23T19:00:50.936Z,99586.72
2018-04-23T19:03:19.424Z,99588.19
2018-04-23T19:05:47.907Z,99592.63
2018-04-23T19:08:16.389Z,99598.88
2018-04-23T19:10:44.880Z,99597.66
2018-04-23T19:13:13.316Z,99590.73
2018-04-23T19:15:41.787Z,99602.28
2018-04-23T19:18:10.265Z,99577.22
2018-04-23T19:20:38.756Z,99594.78
2018-04-23T19:23:07.243Z,99598.83
2018-04-23T19:25:35.685Z,99599.63
2018-04-23T19:28:04.193Z,99606.60
2018-04-23T19:30:32.672Z,99601.73
2018-04-23T19:33:01.166Z,99611.97
2018-04-23T19:35:29.652Z,99621.23
2018-04-23T19:37:58.140Z,99612.31
2018-04-23T19:40:26.633Z,99629.00
2018-04-23T19:42:55.128Z,99633.02
2018-04-23T19:45:23.626Z,99635.99
2018-04-23T19:47:52.082Z,99632.04
2018-04-23T19:50:20.561Z,99642.13
2018-04-23T19:52:49.020Z,99650.00
2018-04-23T19:55:17.612Z,99654.09
2018-04-23T19:57:46.024Z,99636.44
2018-04-23T20:00:14.511Z,99648.72
2018-04-23T20:02:42.947Z,99650.58
2018-04-23T20:05:11.453Z,99656.65
2018-04-23T20:07:39.929Z,99658.58
2018-04-23T20:10:08.412Z,99663.37
2018-04-23T20:12:36.898Z,99660.77
2018-04-23T20:15:05.332Z,99675.95
2018-04-23T20:17:33.842Z,99672.53
2018-04-23T20:20:02.303Z,99672.53
2018-04-23T20:22:30.749Z,99684.47
2018-04-23T20:24:59.229Z,99685.50
2018-04-23T20:27:27.713Z,99687.79
2018-04-23T20:29:56.158Z,99688.02
2018-04-23T20:32:24.617Z,99694.06
2018-04-23T20:34:53.106Z,99699.62
2018-04-23T20:37:21.585Z,99704.67
2018-04-23T20:39:50.041Z,99698.95
2018-04-23T20:42:18.534Z,99695.84
2018-04-23T20:44:46.973Z,99697.41
2018-04-23T20:47:15.464Z,99679.13
2018-04-23T20:49:43.922Z,99697.88
2018-04-23T20:52:12.359Z,99693.59
2018-04-23T20:54:40.836Z,99700.69
2018-04-23T20:57:09.337Z,99703.03
2018-04-23T20:59:37.795Z,99702.34
2018-04-23T21:02:06.315Z,99707.52
2018-04-23T21:04:34.821Z,99712.37
2018-04-23T21:07:03.276Z,99714.91
2018-04-23T21:09:31.776Z,99714.55
2018-04-23T21:12:00.272Z,99717.58
2018-04-23T21:14:28.708Z,99716.28
2018-04-23T21:16:57.177Z,99706.16
2018-04-23T21:19:25.621Z,99716.21
2018-04-23T21:21:54.104Z,99720.09
2018-04-23T21:24:22.584Z,99721.38
2018-04-23T21:26:51.028Z,99726.47
2018-04-23T21:29:19.509Z,99733.55
2018-04-23T21:31:47.980Z,99720.47
2018-04-23T21:34:16.422Z,99730.09
2018-04-23T21:36:44.877Z,99740.97
2018-04-23T21:39:13.370Z,99736.50
2018-04-23T21:41:41.846Z,99731.66
2018-04-23T21:44:10.302Z,99734.21
2018-04-23T21:46:38.806Z,99741.53
2018-04-23T21:49:07.244Z,99747.88
2018-04-23T21:51:35.826Z,99745.34
2018-04-23T21:54:04.282Z,99741.05
2018-04-23T21:56:32.729Z,99749.98
2018-04-23T21:59:01.204Z,99744.05
2018-04-23T22:01:29.695Z,99741.83
2018-04-23T22:03:58.180Z,99752.27
2018-04-23T22:06:26.621Z,99756.67
2018-04-23T22:08:55.109Z,99759.89
2018-04-23T22:11:23.544Z,99759.25
2018-04-23T22:13:51.988Z,99756.66
2018-04-23T22:16:20.460Z,99753.67
2018-04-23T22:18:48.896Z,99748.22
2018-04-23T22:21:17.377Z,99758.69
2018-04-23T22:23:45.864Z,99754.44
2018-04-23T22:26:14.309Z,99752.70
2018-04-23T22:28:42.792Z,99759.45
2018-04-23T22:31:11.233Z,99759.89
2018-04-23T22:33:39.717Z,99755.65
2018-04-23T22:36:08.169Z,99752.07
2018-04-23T22:38:36.652Z,99766.42
2018-04-23T22:41:05.096Z,99761.64
2018-04-23T22:43:33.576Z,99763.05
2018-04-23T22:46:02.037Z,99769.55
2018-04-23T22:48:30.528Z,99767.40
2018-04-23T22:50:58.968Z,99779.22
2018-04-23T22:53:27.450Z,99778.50
2018-04-23T22:55:55.903Z,99781.13
2018-04-23T22:58:24.421Z,99779.66
2018-04-23T23:00:52.896Z,99782.87
2018-04-23T23:03:21.345Z,99782.61
2018-04-23T23:05:50.108Z,99781.02
2018-04-23T23:08:18.559Z,99777.87
2018-04-23T23:10:47.010Z,99772.56
2018-04-23T23:13:15.606Z,99775.23
2018-04-23T23:15:44.068Z,99777.04
2018-04-23T23:18:12.548Z,99781.20
2018-04-23T23:20:41.038Z,99774.88
2018-04-23T23:23:09.519Z,99774.52
2018-04-23T23:25:37.976Z,99772.30
2018-04-23T23:28:06.478Z,99765.09
2018-04-23T23:30:34.935Z,99771.01
2018-04-23T23:33:03.445Z,99771.87
2018-04-23T23:35:31.908Z,99772.80
2018-04-23T23:38:00.376Z,99764.79
2018-04-23T23:40:28.888Z,99777.00
2018-04-23T23:42:57.348Z,99779.80
2018-04-23T23:45:25.829Z,99782.65
2018-04-23T23:47:54.271Z,99782.88
2018-04-23T23:50:22.787Z,99785.48
2018-04-23T23:52:51.271Z,99774.67
2018-04-23T23:55:19.700Z,99770.43
2018-04-23T23:57:48.192Z,99769.88
